sensor_id;sensor_type;location;lat;lon;timestamp;pressure;altitude;pressure_sealevel;temperature;humidity
7614;BME280;3848;42.016;23.098;2023-02-23T00:00:24;96995.56;;;5.91;100.00
7614;BME280;3848;42.016;23.098;2023-02-23T00:02:53;97042.84;;;6.21;100.00
7614;BME280;3848;42.016;23.098;2023-02-23T00:05:23;97057.97;;;6.19;100.00
7614;BME280;3848;42.016;23.098;2023-02-23T00:07:50;97050.34;;;6.08;100.00
7614;BME280;3848;42.016;23.098;2023-02-23T00:10:18;96940.44;;;5.38;100.00
7614;BME280;3848;42.016;23.098;2023-02-23T00:12:46;97057.81;;;5.99;100.00
7614;BME280;3848;42.016;23.098;2023-02-23T00:15:16;97055.16;;;5.87;100.00
7614;BME280;3848;42.016;23.098;2023-02-23T00:17:42;97065.19;;;5.82;100.00
7614;BME280;3848;42.016;23.098;2023-02-23T00:20:13;97055.84;;;5.71;100.00
7614;BME280;3848;42.016;23.098;2023-02-23T00:22:41;97060.03;;;5.69;100.00
7614;BME280;3848;42.016;23.098;2023-02-23T00:25:09;97060.00;;;5.66;100.00
7614;BME280;3848;42.016;23.098;2023-02-23T00:27:37;97055.69;;;5.56;100.00
7614;BME280;3848;42.016;23.098;2023-02-23T00:30:10;97053.06;;;5.45;100.00
7614;BME280;3848;42.016;23.098;2023-02-23T00:32:39;97063.19;;;5.48;100.00
7614;BME280;3848;42.016;23.098;2023-02-23T00:35:07;97061.50;;;5.48;100.00
7614;BME280;3848;42.016;23.098;2023-02-23T00:37:42;97059.84;;;5.50;100.00
7614;BME280;3848;42.016;23.098;2023-02-23T00:40:10;97058.19;;;5.53;100.00
7614;BME280;3848;42.016;23.098;2023-02-23T00:42:39;97054.84;;;5.54;100.00
7614;BME280;3848;42.016;23.098;2023-02-23T00:45:07;97055.66;;;5.51;100.00
7614;BME280;3848;42.016;23.098;2023-02-23T00:47:39;97057.28;;;5.47;100.00
7614;BME280;3848;42.016;23.098;2023-02-23T00:50:08;97061.50;;;5.48;100.00
7614;BME280;3848;42.016;23.098;2023-02-23T00:52:38;97044.66;;;5.41;100.00
7614;BME280;3848;42.016;23.098;2023-02-23T00:55:06;97058.16;;;5.49;100.00
7614;BME280;3848;42.016;23.098;2023-02-23T00:57:34;97064.88;;;5.50;100.00
7614;BME280;3848;42.016;23.098;2023-02-23T01:00:02;97064.91;;;5.54;100.00
7614;BME280;3848;42.016;23.098;2023-02-23T01:02:39;97059.88;;;5.55;100.00
7614;BME280;3848;42.016;23.098;2023-02-23T01:05:07;97064.91;;;5.54;100.00
7614;BME280;3848;42.016;23.098;2023-02-23T01:07:35;97060.69;;;5.49;100.00
7614;BME280;3848;42.016;23.098;2023-02-23T01:10:02;97073.31;;;5.53;100.00
7614;BME280;3848;42.016;23.098;2023-02-23T01:12:43;97066.53;;;5.48;100.00
7614;BME280;3848;42.016;23.098;2023-02-23T01:15:10;97061.44;;;5.42;100.00
7614;BME280;3848;42.016;23.098;2023-02-23T01:17:38;97063.06;;;5.37;100.00
7614;BME280;3848;42.016;23.098;2023-02-23T01:20:06;97039.41;;;5.23;100.00
7614;BME280;3848;42.016;23.098;2023-02-23T01:22:40;97058.00;;;5.36;100.00
7614;BME280;3848;42.016;23.098;2023-02-23T01:25:08;97058.78;;;5.30;100.00
7614;BME280;3848;42.016;23.098;2023-02-23T01:27:37;97061.16;;;5.18;100.00
7614;BME280;3848;42.016;23.098;2023-02-23T01:30:04;97065.28;;;5.13;100.00
7614;BME280;3848;42.016;23.098;2023-02-23T01:32:33;97062.75;;;5.10;100.00
7614;BME280;3848;42.016;23.098;2023-02-23T01:35:02;97065.19;;;5.04;100.00
7614;BME280;3848;42.016;23.098;2023-02-23T01:37:30;97060.19;;;5.05;100.00
7614;BME280;3848;42.016;23.098;2023-02-23T01:39:57;97061.00;;;5.04;100.00
7614;BME280;3848;42.016;23.098;2023-02-23T01:42:24;97056.78;;;5.02;100.00
7614;BME280;3848;42.016;23.098;2023-02-23T01:45:22;97061.06;;;5.09;100.00
7614;BME280;3848;42.016;23.098;2023-02-23T01:47:51;97052.50;;;4.98;100.00
7614;BME280;3848;42.016;23.098;2023-02-23T01:50:22;97063.41;;;4.98;100.00
7614;BME280;3848;42.016;23.098;2023-02-23T01:52:51;97049.03;;;4.86;100.00
7614;BME280;3848;42.016;23.098;2023-02-23T01:55:20;97062.47;;;4.88;100.00
7614;BME280;3848;42.016;23.098;2023-02-23T01:57:50;97057.38;;;4.82;100.00
7614;BME280;3848;42.016;23.098;2023-02-23T02:00:19;97042.88;;;4.66;100.00
7614;BME280;3848;42.016;23.098;2023-02-23T02:02:50;97057.19;;;4.70;100.00
7614;BME280;3848;42.016;23.098;2023-02-23T02:05:18;97025.06;;;4.51;100.00
7614;BME280;3848;42.016;23.098;2023-02-23T02:07:48;97049.59;;;4.67;100.00
7614;BME280;3848;42.016;23.098;2023-02-23T02:10:24;97052.19;;;4.72;100.00
7614;BME280;3848;42.016;23.098;2023-02-23T02:13:11;97047.09;;;4.69;100.00
7614;BME280;3848;42.016;23.098;2023-02-23T02:15:50;97052.19;;;4.73;100.00
7614;BME280;3848;42.016;23.098;2023-02-23T02:18:22;97048.88;;;4.76;100.00
7614;BME280;3848;42.016;23.098;2023-02-23T02:21:22;97052.31;;;4.81;100.00
7614;BME280;3848;42.016;23.098;2023-02-23T02:24:32;97053.91;;;4.77;100.00
7614;BME280;3848;42.016;23.098;2023-02-23T02:27:17;97052.13;;;4.67;100.00
7614;BME280;3848;42.016;23.098;2023-02-23T02:30:15;97055.31;;;4.55;100.00
7614;BME280;3848;42.016;23.098;2023-02-23T02:33:07;97054.25;;;4.40;100.00
7614;BME280;3848;42.016;23.098;2023-02-23T02:36:01;97049.03;;;4.27;100.00
7614;BME280;3848;42.016;23.098;2023-02-23T02:38:40;97054.88;;;4.26;100.00
7614;BME280;3848;42.016;23.098;2023-02-23T02:41:17;97054.00;;;4.23;100.00
7614;BME280;3848;42.016;23.098;2023-02-23T02:43:49;96984.66;;;3.83;100.00
7614;BME280;3848;42.016;23.098;2023-02-23T02:46:23;97048.88;;;4.17;100.00
7614;BME280;3848;42.016;23.098;2023-02-23T02:48:56;97056.44;;;4.18;100.00
7614;BME280;3848;42.016;23.098;2023-02-23T02:51:28;97053.03;;;4.16;100.00
7614;BME280;3848;42.016;23.098;2023-02-23T02:54:04;97047.06;;;4.08;100.00
7614;BME280;3848;42.016;23.098;2023-02-23T02:56:33;97054.47;;;4.01;100.00
7614;BME280;3848;42.016;23.098;2023-02-23T02:59:06;97060.34;;;4.01;100.00
7614;BME280;3848;42.016;23.098;2023-02-23T03:01:47;97060.28;;;3.96;100.00
7614;BME280;3848;42.016;23.098;2023-02-23T03:04:30;97062.72;;;3.93;100.00
7614;BME280;3848;42.016;23.098;2023-02-23T03:07:20;97062.72;;;3.93;100.00
7614;BME280;3848;42.016;23.098;2023-02-23T03:10:11;97056.94;;;3.96;100.00
7614;BME280;3848;42.016;23.098;2023-02-23T03:13:07;97064.41;;;3.94;100.00
7614;BME280;3848;42.016;23.098;2023-02-23T03:15:59;97065.16;;;3.89;100.00
7614;BME280;3848;42.016;23.098;2023-02-23T03:18:56;97069.31;;;3.85;100.00
7614;BME280;3848;42.016;23.098;2023-02-23T03:21:49;97069.31;;;3.85;100.00
7614;BME280;3848;42.016;23.098;2023-02-23T03:24:39;97062.56;;;3.83;100.00
7614;BME280;3848;42.016;23.098;2023-02-23T03:27:35;97071.03;;;3.89;100.00
7614;BME280;3848;42.016;23.098;2023-02-23T03:30:29;97065.09;;;3.84;100.00
7614;BME280;3848;42.016;23.098;2023-02-23T03:33:18;97057.34;;;3.74;100.00
7614;BME280;3848;42.016;23.098;2023-02-23T03:36:10;97062.28;;;3.67;100.00
7614;BME280;3848;42.016;23.098;2023-02-23T03:38:57;97068.91;;;3.62;100.00
7614;BME280;3848;42.016;23.098;2023-02-23T03:41:45;97078.75;;;3.53;100.00
7614;BME280;3848;42.016;23.098;2023-02-23T03:44:36;97069.25;;;3.35;100.00
7614;BME280;3848;42.016;23.098;2023-02-23T03:47:25;97075.13;;;3.36;100.00
7614;BME280;3848;42.016;23.098;2023-02-23T03:50:16;97077.66;;;3.38;100.00
7614;BME280;3848;42.016;23.098;2023-02-23T03:53:06;97082.66;;;3.36;100.00
7614;BME280;3848;42.016;23.098;2023-02-23T03:55:55;97081.97;;;3.45;100.00
7614;BME280;3848;42.016;23.098;2023-02-23T03:58:45;97081.16;;;3.46;100.00
7614;BME280;3848;42.016;23.098;2023-02-23T04:01:32;97089.56;;;3.48;100.00
7614;BME280;3848;42.016;23.098;2023-02-23T04:04:17;97093.72;;;3.47;100.00
7614;BME280;3848;42.016;23.098;2023-02-23T04:07:05;97085.28;;;3.42;100.00
7614;BME280;3848;42.016;23.098;2023-02-23T04:09:49;97086.25;;;3.50;100.00
7614;BME280;3848;42.016;23.098;2023-02-23T04:12:39;97087.22;;;3.55;100.00
7614;BME280;3848;42.016;23.098;2023-02-23T04:15:29;97093.03;;;3.54;100.00
7614;BME280;3848;42.016;23.098;2023-02-23T04:17:58;97097.25;;;3.55;100.00
7614;BME280;3848;42.016;23.098;2023-02-23T04:20:26;97093.13;;;3.59;100.00
7614;BME280;3848;42.016;23.098;2023-02-23T04:22:53;97100.75;;;3.63;100.00
7614;BME280;3848;42.016;23.098;2023-02-23T04:25:20;97092.16;;;3.52;100.00
7614;BME280;3848;42.016;23.098;2023-02-23T04:27:47;97085.41;;;3.50;100.00
7614;BME280;3848;42.016;23.098;2023-02-23T04:30:14;97093.03;;;3.54;100.00
7614;BME280;3848;42.016;23.098;2023-02-23T04:32:41;97092.22;;;3.55;100.00
7614;BME280;3848;42.016;23.098;2023-02-23T04:35:11;97098.91;;;3.55;100.00
7614;BME280;3848;42.016;23.098;2023-02-23T04:37:38;97096.13;;;3.41;100.00
7614;BME280;3848;42.016;23.098;2023-02-23T04:40:06;97105.97;;;3.30;100.00
7614;BME280;3848;42.016;23.098;2023-02-23T04:42:33;97101.59;;;3.22;100.00
7614;BME280;3848;42.016;23.098;2023-02-23T04:45:00;97101.34;;;3.10;100.00
7614;BME280;3848;42.016;23.098;2023-02-23T04:47:27;97087.75;;;2.98;100.00
7614;BME280;3848;42.016;23.098;2023-02-23T04:49:54;97110.53;;;3.09;100.00
7614;BME280;3848;42.016;23.098;2023-02-23T04:52:22;97100.31;;;2.98;100.00
7614;BME280;3848;42.016;23.098;2023-02-23T04:54:49;97112.22;;;3.09;100.00
7614;BME280;3848;42.016;23.098;2023-02-23T04:57:16;97102.28;;;3.13;100.00
7614;BME280;3848;42.016;23.098;2023-02-23T04:59:42;97108.22;;;3.17;100.00
7614;BME280;3848;42.016;23.098;2023-02-23T05:02:10;97109.91;;;3.18;100.00
7614;BME280;3848;42.016;23.098;2023-02-23T05:04:37;97113.22;;;3.17;100.00
7614;BME280;3848;42.016;23.098;2023-02-23T05:07:04;97092.75;;;2.97;100.00
7614;BME280;3848;42.016;23.098;2023-02-23T05:09:32;97111.22;;;3.00;100.00
7614;BME280;3848;42.016;23.098;2023-02-23T05:11:59;97116.16;;;2.97;100.00
7614;BME280;3848;42.016;23.098;2023-02-23T05:14:26;97121.13;;;2.94;100.00
7614;BME280;3848;42.016;23.098;2023-02-23T05:16:53;97107.56;;;2.86;100.00
7614;BME280;3848;42.016;23.098;2023-02-23T05:19:20;97118.53;;;2.91;100.00
7614;BME280;3848;42.016;23.098;2023-02-23T05:21:47;97122.69;;;2.91;100.00
7614;BME280;3848;42.016;23.098;2023-02-23T05:24:14;97117.56;;;2.85;100.00
7614;BME280;3848;42.016;23.098;2023-02-23T05:26:43;97129.38;;;2.90;100.00
7614;BME280;3848;42.016;23.098;2023-02-23T05:29:10;97125.22;;;2.91;100.00
7614;BME280;3848;42.016;23.098;2023-02-23T05:31:37;97129.47;;;2.93;100.00
7614;BME280;3848;42.016;23.098;2023-02-23T05:34:04;97123.63;;;2.94;100.00
7614;BME280;3848;42.016;23.098;2023-02-23T05:36:31;97124.56;;;2.99;100.00
7614;BME280;3848;42.016;23.098;2023-02-23T05:38:58;97135.69;;;3.12;100.00
7614;BME280;3848;42.016;23.098;2023-02-23T05:41:24;97141.72;;;3.19;100.00
7614;BME280;3848;42.016;23.098;2023-02-23T05:43:53;97140.94;;;3.21;100.00
7614;BME280;3848;42.016;23.098;2023-02-23T05:46:22;97140.97;;;3.23;100.00
7614;BME280;3848;42.016;23.098;2023-02-23T05:48:49;97149.41;;;3.26;100.00
7614;BME280;3848;42.016;23.098;2023-02-23T05:51:16;97156.13;;;3.27;100.00
7614;BME280;3848;42.016;23.098;2023-02-23T05:53:44;97138.38;;;3.18;100.00
7614;BME280;3848;42.016;23.098;2023-02-23T05:56:13;97151.19;;;3.32;100.00
7614;BME280;3848;42.016;23.098;2023-02-23T05:58:44;97157.13;;;3.35;100.00
7614;BME280;3848;42.016;23.098;2023-02-23T06:01:13;97160.50;;;3.36;100.00
7614;BME280;3848;42.016;23.098;2023-02-23T06:03:39;97160.56;;;3.39;100.00
7614;BME280;3848;42.016;23.098;2023-02-23T06:06:06;97166.53;;;3.46;100.00
7614;BME280;3848;42.016;23.098;2023-02-23T06:08:33;97169.03;;;3.44;100.00
7614;BME280;3848;42.016;23.098;2023-02-23T06:11:00;97172.47;;;3.49;100.00
7614;BME280;3848;42.016;23.098;2023-02-23T06:13:28;97174.28;;;3.55;100.00
7614;BME280;3848;42.016;23.098;2023-02-23T06:15:56;97176.03;;;3.59;100.00
7614;BME280;3848;42.016;23.098;2023-02-23T06:18:25;97179.50;;;3.65;100.00
7614;BME280;3848;42.016;23.098;2023-02-23T06:20:52;97174.53;;;3.68;100.00
7614;BME280;3848;42.016;23.098;2023-02-23T06:23:19;97171.25;;;3.73;100.00
7614;BME280;3848;42.016;23.098;2023-02-23T06:25:46;97174.63;;;3.75;100.00
7614;BME280;3848;42.016;23.098;2023-02-23T06:28:13;97179.81;;;3.81;100.00
7614;BME280;3848;42.016;23.098;2023-02-23T06:30:41;97183.28;;;3.89;100.00
7614;BME280;3848;42.016;23.098;2023-02-23T06:33:08;97167.38;;;3.88;100.00
7614;BME280;3848;42.016;23.098;2023-02-23T06:35:36;97181.03;;;4.03;100.00
7614;BME280;3848;42.016;23.098;2023-02-23T06:38:03;97184.53;;;4.11;100.00
7614;BME280;3848;42.016;23.098;2023-02-23T06:40:30;97177.13;;;4.17;100.00
7614;BME280;3848;42.016;23.098;2023-02-23T06:42:57;97171.31;;;4.21;100.00
7614;BME280;3848;42.016;23.098;2023-02-23T06:45:24;97178.88;;;4.22;100.00
7614;BME280;3848;42.016;23.098;2023-02-23T06:47:52;97171.41;;;4.27;100.00
7614;BME280;3848;42.016;23.098;2023-02-23T06:50:19;97178.22;;;4.33;100.00
7614;BME280;3848;42.016;23.098;2023-02-23T06:52:48;97175.72;;;4.36;100.00
7614;BME280;3848;42.016;23.098;2023-02-23T06:55:15;97182.38;;;4.31;100.00
7614;BME280;3848;42.016;23.098;2023-02-23T06:57:42;97179.81;;;4.29;100.00
7614;BME280;3848;42.016;23.098;2023-02-23T07:00:10;97179.00;;;4.30;100.00
7614;BME280;3848;42.016;23.098;2023-02-23T07:02:39;97180.66;;;4.29;100.00
7614;BME280;3848;42.016;23.098;2023-02-23T07:05:07;97180.75;;;4.36;100.00
7614;BME280;3848;42.016;23.098;2023-02-23T07:07:37;97177.50;;;4.40;100.00
7614;BME280;3848;42.016;23.098;2023-02-23T07:10:07;97178.28;;;4.37;100.00
7614;BME280;3848;42.016;23.098;2023-02-23T07:12:34;97182.53;;;4.40;100.00
7614;BME280;3848;42.016;23.098;2023-02-23T07:15:00;97173.25;;;4.37;100.00
7614;BME280;3848;42.016;23.098;2023-02-23T07:17:27;97172.53;;;4.43;100.00
7614;BME280;3848;42.016;23.098;2023-02-23T07:19:54;97180.97;;;4.48;100.00
7614;BME280;3848;42.016;23.098;2023-02-23T07:22:21;97172.75;;;4.58;100.00
7614;BME280;3848;42.016;23.098;2023-02-23T07:24:49;97163.72;;;4.69;100.00
7614;BME280;3848;42.016;23.098;2023-02-23T07:27:17;97172.22;;;4.77;100.00
7614;BME280;3848;42.016;23.098;2023-02-23T07:29:44;97170.75;;;4.92;100.00
7614;BME280;3848;42.016;23.098;2023-02-23T07:32:11;97167.59;;;5.05;100.00
7614;BME280;3848;42.016;23.098;2023-02-23T07:34:38;97155.06;;;5.09;100.00
7614;BME280;3848;42.016;23.098;2023-02-23T07:37:05;97163.69;;;5.25;100.00
7614;BME280;3848;42.016;23.098;2023-02-23T07:39:32;97165.50;;;5.38;100.00
7614;BME280;3848;42.016;23.098;2023-02-23T07:41:58;97163.13;;;5.46;100.00
7614;BME280;3848;42.016;23.098;2023-02-23T07:44:26;97153.91;;;5.49;100.00
7614;BME280;3848;42.016;23.098;2023-02-23T07:46:53;97136.25;;;5.46;100.00
7614;BME280;3848;42.016;23.098;2023-02-23T07:49:20;97146.44;;;5.57;100.00
7614;BME280;3848;42.016;23.098;2023-02-23T07:51:47;97135.50;;;5.58;100.00
7614;BME280;3848;42.016;23.098;2023-02-23T07:54:14;97155.84;;;5.72;100.00
7614;BME280;3848;42.016;23.098;2023-02-23T07:56:41;97144.22;;;5.83;100.00
7614;BME280;3848;42.016;23.098;2023-02-23T07:59:07;97143.56;;;5.99;100.00
7614;BME280;3848;42.016;23.098;2023-02-23T08:01:36;97144.53;;;6.10;100.00
7614;BME280;3848;42.016;23.098;2023-02-23T08:04:03;97138.78;;;6.25;100.00
7614;BME280;3848;42.016;23.098;2023-02-23T08:06:29;97124.56;;;6.38;100.00
7614;BME280;3848;42.016;23.098;2023-02-23T08:08:57;97136.50;;;6.57;100.00
7614;BME280;3848;42.016;23.098;2023-02-23T08:11:25;97118.00;;;6.60;100.00
7614;BME280;3848;42.016;23.098;2023-02-23T08:13:53;97123.16;;;6.72;100.00
7614;BME280;3848;42.016;23.098;2023-02-23T08:16:24;97125.72;;;6.80;100.00
7614;BME280;3848;42.016;23.098;2023-02-23T08:18:52;97122.44;;;6.93;100.00
7614;BME280;3848;42.016;23.098;2023-02-23T08:21:19;97120.03;;;7.11;100.00
7614;BME280;3848;42.016;23.098;2023-02-23T08:23:46;97113.34;;;7.25;100.00
7614;BME280;3848;42.016;23.098;2023-02-23T08:26:12;97119.31;;;7.43;100.00
7614;BME280;3848;42.016;23.098;2023-02-23T08:28:39;97125.28;;;7.54;100.00
7614;BME280;3848;42.016;23.098;2023-02-23T08:31:10;97116.06;;;7.73;100.00
7614;BME280;3848;42.016;23.098;2023-02-23T08:33:37;97108.50;;;7.80;100.00
7614;BME280;3848;42.016;23.098;2023-02-23T08:36:09;97107.69;;;7.98;100.00
7614;BME280;3848;42.016;23.098;2023-02-23T08:38:36;97108.56;;;8.12;100.00
7614;BME280;3848;42.016;23.098;2023-02-23T08:41:03;97105.19;;;8.33;100.00
7614;BME280;3848;42.016;23.098;2023-02-23T08:43:30;97098.47;;;8.38;100.00
7614;BME280;3848;42.016;23.098;2023-02-23T08:45:57;97102.69;;;8.48;100.00
7614;BME280;3848;42.016;23.098;2023-02-23T08:48:23;97106.91;;;8.55;100.00
7614;BME280;3848;42.016;23.098;2023-02-23T08:50:55;97098.44;;;8.67;100.00
7614;BME280;3848;42.016;23.098;2023-02-23T08:53:23;97114.47;;;8.86;100.00
7614;BME280;3848;42.016;23.098;2023-02-23T08:55:55;97076.50;;;8.78;100.00
7614;BME280;3848;42.016;23.098;2023-02-23T08:58:22;97100.88;;;9.14;100.00
7614;BME280;3848;42.016;23.098;2023-02-23T09:00:49;97096.63;;;9.29;100.00
7614;BME280;3848;42.016;23.098;2023-02-23T09:03:16;97101.63;;;9.47;100.00
7614;BME280;3848;42.016;23.098;2023-02-23T09:05:43;97088.84;;;9.68;100.00
7614;BME280;3848;42.016;23.098;2023-02-23T09:08:11;97094.56;;;9.98;100.00
7614;BME280;3848;42.016;23.098;2023-02-23T09:10:39;97097.81;;;10.26;100.00
7614;BME280;3848;42.016;23.098;2023-02-23T09:13:08;97084.91;;;10.50;100.00
7614;BME280;3848;42.016;23.098;2023-02-23T09:15:35;97087.25;;;10.73;100.00
7614;BME280;3848;42.016;23.098;2023-02-23T09:18:03;97082.78;;;10.95;100.00
7614;BME280;3848;42.016;23.098;2023-02-23T09:20:30;97079.22;;;11.11;100.00
7614;BME280;3848;42.016;23.098;2023-02-23T09:22:57;97066.38;;;11.25;100.00
7614;BME280;3848;42.016;23.098;2023-02-23T09:25:24;97026.53;;;11.22;100.00
7614;BME280;3848;42.016;23.098;2023-02-23T09:27:55;97064.97;;;11.69;100.00
7614;BME280;3848;42.016;23.098;2023-02-23T09:30:24;97057.94;;;11.87;100.00
7614;BME280;3848;42.016;23.098;2023-02-23T09:32:53;97050.91;;;12.03;100.00
7614;BME280;3848;42.016;23.098;2023-02-23T09:35:22;97050.41;;;12.35;95.02
7614;BME280;3848;42.016;23.098;2023-02-23T09:37:51;97050.09;;;12.54;92.27
7614;BME280;3848;42.016;23.098;2023-02-23T09:40:21;97057.16;;;12.86;87.88
7614;BME280;3848;42.016;23.098;2023-02-23T09:42:59;97048.31;;;13.48;82.74
7614;BME280;3848;42.016;23.098;2023-02-23T09:45:37;97023.41;;;14.32;70.80
7614;BME280;3848;42.016;23.098;2023-02-23T09:48:14;97031.34;;;15.50;71.40
7614;BME280;3848;42.016;23.098;2023-02-23T09:50:45;97026.84;;;16.40;60.88
7614;BME280;3848;42.016;23.098;2023-02-23T09:56:03;97017.06;;;17.95;55.17
7614;BME280;3848;42.016;23.098;2023-02-23T09:58:34;97010.50;;;18.30;52.43
7614;BME280;3848;42.016;23.098;2023-02-23T10:01:15;97010.44;;;18.52;52.66
7614;BME280;3848;42.016;23.098;2023-02-23T10:03:50;97002.44;;;18.80;52.60
7614;BME280;3848;42.016;23.098;2023-02-23T10:06:20;96989.47;;;19.02;50.45
7614;BME280;3848;42.016;23.098;2023-02-23T10:08:55;96978.44;;;19.18;49.38
7614;BME280;3848;42.016;23.098;2023-02-23T10:11:28;96994.81;;;19.55;50.27
7614;BME280;3848;42.016;23.098;2023-02-23T10:14:21;96990.81;;;19.48;47.46
7614;BME280;3848;42.016;23.098;2023-02-23T10:17:02;96990.06;;;19.84;48.83
7614;BME280;3848;42.016;23.098;2023-02-23T10:19:37;96983.28;;;20.34;48.83
7614;BME280;3848;42.016;23.098;2023-02-23T10:22:08;96983.31;;;20.69;45.73
7614;BME280;3848;42.016;23.098;2023-02-23T10:24:39;96978.13;;;20.69;46.53
7614;BME280;3848;42.016;23.098;2023-02-23T10:27:09;96968.47;;;20.73;44.64
7614;BME280;3848;42.016;23.098;2023-02-23T10:29:40;96963.72;;;20.98;44.87
7614;BME280;3848;42.016;23.098;2023-02-23T10:32:14;96950.66;;;21.17;44.23
7614;BME280;3848;42.016;23.098;2023-02-23T10:34:47;96957.25;;;21.22;43.80
7614;BME280;3848;42.016;23.098;2023-02-23T10:37:16;96946.72;;;21.27;45.68
7614;BME280;3848;42.016;23.098;2023-02-23T10:39:43;96941.31;;;21.14;42.09
7614;BME280;3848;42.016;23.098;2023-02-23T10:42:13;96935.91;;;21.03;42.07
7614;BME280;3848;42.016;23.098;2023-02-23T10:44:43;96937.63;;;21.02;43.33
7614;BME280;3848;42.016;23.098;2023-02-23T10:47:14;96935.81;;;21.20;43.13
7614;BME280;3848;42.016;23.098;2023-02-23T10:49:43;96921.75;;;21.42;41.55
7614;BME280;3848;42.016;23.098;2023-02-23T10:52:12;96910.28;;;21.32;44.23
7614;BME280;3848;42.016;23.098;2023-02-23T10:54:42;96912.84;;;21.32;42.60
7614;BME280;3848;42.016;23.098;2023-02-23T10:57:19;96908.78;;;21.27;42.60
7614;BME280;3848;42.016;23.098;2023-02-23T11:00:25;96903.47;;;21.13;43.19
7614;BME280;3848;42.016;23.098;2023-02-23T11:02:58;96900.38;;;21.22;43.70
7614;BME280;3848;42.016;23.098;2023-02-23T11:05:32;96894.00;;;21.45;41.94
7614;BME280;3848;42.016;23.098;2023-02-23T11:08:16;96878.16;;;21.36;42.20
7614;BME280;3848;42.016;23.098;2023-02-23T11:10:58;96883.69;;;21.75;44.64
7614;BME280;3848;42.016;23.098;2023-02-23T11:13:27;96881.63;;;22.12;43.28
7614;BME280;3848;42.016;23.098;2023-02-23T11:16:00;96872.50;;;22.35;41.69
7614;BME280;3848;42.016;23.098;2023-02-23T11:18:28;96868.72;;;22.55;42.58
7614;BME280;3848;42.016;23.098;2023-02-23T11:20:55;96860.94;;;22.69;41.11
7614;BME280;3848;42.016;23.098;2023-02-23T11:23:25;96857.59;;;22.81;41.24
7614;BME280;3848;42.016;23.098;2023-02-23T11:25:55;96859.53;;;23.06;42.45
7614;BME280;3848;42.016;23.098;2023-02-23T11:28:26;96858.91;;;23.02;39.70
7614;BME280;3848;42.016;23.098;2023-02-23T11:30:55;96852.25;;;22.70;38.77
7614;BME280;3848;42.016;23.098;2023-02-23T11:33:27;96845.75;;;22.77;40.74
7614;BME280;3848;42.016;23.098;2023-02-23T11:36:13;96845.78;;;22.91;40.88
7614;BME280;3848;42.016;23.098;2023-02-23T11:38:41;96846.56;;;23.06;38.37
7614;BME280;3848;42.016;23.098;2023-02-23T11:41:19;96844.19;;;22.89;39.28
7614;BME280;3848;42.016;23.098;2023-02-23T11:43:50;96834.47;;;22.64;39.16
7614;BME280;3848;42.016;23.098;2023-02-23T11:46:19;96831.88;;;22.64;39.36
7614;BME280;3848;42.016;23.098;2023-02-23T11:48:51;96828.19;;;22.82;39.65
7614;BME280;3848;42.016;23.098;2023-02-23T11:51:25;96818.88;;;23.06;41.40
7614;BME280;3848;42.016;23.098;2023-02-23T11:53:53;96821.66;;;23.18;39.61
7614;BME280;3848;42.016;23.098;2023-02-23T11:56:22;96821.34;;;23.49;40.42
7614;BME280;3848;42.016;23.098;2023-02-23T11:58:58;96818.00;;;23.47;38.77
7614;BME280;3848;42.016;23.098;2023-02-23T12:01:36;96807.41;;;23.37;37.27
7614;BME280;3848;42.016;23.098;2023-02-23T12:04:07;96810.13;;;23.49;38.41
7614;BME280;3848;42.016;23.098;2023-02-23T12:06:37;96811.25;;;23.59;39.42
7614;BME280;3848;42.016;23.098;2023-02-23T12:09:16;96790.69;;;23.68;39.77
7614;BME280;3848;42.016;23.098;2023-02-23T12:11:48;96631.19;;;22.84;38.25
7614;BME280;3848;42.016;23.098;2023-02-23T12:14:24;96785.94;;;23.88;38.48
7614;BME280;3848;42.016;23.098;2023-02-23T12:16:56;96793.31;;;23.94;37.76
7614;BME280;3848;42.016;23.098;2023-02-23T12:19:31;96791.66;;;23.93;37.09
7614;BME280;3848;42.016;23.098;2023-02-23T12:22:02;96764.34;;;23.87;36.10
7614;BME280;3848;42.016;23.098;2023-02-23T12:24:39;96774.31;;;23.93;36.90
7614;BME280;3848;42.016;23.098;2023-02-23T12:27:11;96728.94;;;23.73;38.59
7614;BME280;3848;42.016;23.098;2023-02-23T12:29:47;96778.03;;;23.64;37.96
7614;BME280;3848;42.016;23.098;2023-02-23T12:32:19;96739.81;;;23.14;37.34
7614;BME280;3848;42.016;23.098;2023-02-23T12:35:28;96774.78;;;23.21;38.87
7614;BME280;3848;42.016;23.098;2023-02-23T12:38:04;96767.16;;;23.05;37.54
7614;BME280;3848;42.016;23.098;2023-02-23T12:40:38;96768.72;;;23.07;38.65
7614;BME280;3848;42.016;23.098;2023-02-23T12:43:11;96763.84;;;22.89;38.11
7614;BME280;3848;42.016;23.098;2023-02-23T12:45:42;96763.41;;;22.96;37.10
7614;BME280;3848;42.016;23.098;2023-02-23T12:48:18;96754.38;;;23.02;37.62
7614;BME280;3848;42.016;23.098;2023-02-23T12:50:57;96767.41;;;23.15;36.88
7614;BME280;3848;42.016;23.098;2023-02-23T12:53:30;96743.66;;;23.21;36.57
7614;BME280;3848;42.016;23.098;2023-02-23T12:56:08;96766.00;;;23.09;35.98
7614;BME280;3848;42.016;23.098;2023-02-23T12:58:45;96757.97;;;23.14;36.10
7614;BME280;3848;42.016;23.098;2023-02-23T13:01:19;96746.09;;;23.09;36.10
7614;BME280;3848;42.016;23.098;2023-02-23T13:04:00;96747.88;;;22.82;36.26
7614;BME280;3848;42.016;23.098;2023-02-23T13:06:38;96748.25;;;22.62;37.11
7614;BME280;3848;42.016;23.098;2023-02-23T13:09:25;96736.09;;;22.21;37.45
7614;BME280;3848;42.016;23.098;2023-02-23T13:12:21;96736.72;;;21.96;37.23
7614;BME280;3848;42.016;23.098;2023-02-23T13:14:58;96736.38;;;21.88;37.94
7614;BME280;3848;42.016;23.098;2023-02-23T13:17:35;96738.19;;;21.72;37.70
7614;BME280;3848;42.016;23.098;2023-02-23T13:20:08;96744.38;;;21.69;38.72
7614;BME280;3848;42.016;23.098;2023-02-23T13:22:49;96735.56;;;21.57;38.50
7614;BME280;3848;42.016;23.098;2023-02-23T13:25:25;96728.59;;;21.44;38.67
7614;BME280;3848;42.016;23.098;2023-02-23T13:27:57;96735.69;;;21.26;38.62
7614;BME280;3848;42.016;23.098;2023-02-23T13:30:28;96729.41;;;21.14;39.27
7614;BME280;3848;42.016;23.098;2023-02-23T13:32:58;96737.53;;;21.08;39.50
7614;BME280;3848;42.016;23.098;2023-02-23T13:35:30;96743.84;;;21.02;40.15
7614;BME280;3848;42.016;23.098;2023-02-23T13:38:10;96738.53;;;21.06;40.20
7614;BME280;3848;42.016;23.098;2023-02-23T13:40:45;96744.53;;;20.90;39.84